createdAt,value
2023-02-14T00:00:04.624Z,61.13
2023-02-14T00:02:31.628Z,61.16
2023-02-14T00:04:58.416Z,61.55
2023-02-14T00:07:25.536Z,62.18
2023-02-14T00:09:52.162Z,62.48
2023-02-14T00:12:18.788Z,62.28
2023-02-14T00:14:45.447Z,62.34
2023-02-14T00:17:12.348Z,61.17
2023-02-14T00:19:39.006Z,61.16
2023-02-14T00:22:05.730Z,61.49
2023-02-14T00:24:32.479Z,61.47
2023-02-14T00:26:59.124Z,61.84
2023-02-14T00:29:28.300Z,61.31
2023-02-14T00:31:55.308Z,60.87
2023-02-14T00:34:21.952Z,60.73
2023-02-14T00:36:48.714Z,61.03
2023-02-14T00:39:15.896Z,60.79
2023-02-14T00:41:42.671Z,60.98
2023-02-14T00:44:09.708Z,61.27
2023-02-14T00:46:36.335Z,61.17
2023-02-14T00:49:02.967Z,60.84
2023-02-14T00:51:29.940Z,60.96
2023-02-14T00:53:56.596Z,61.14
2023-02-14T00:56:23.417Z,61.00
2023-02-14T00:58:50.234Z,60.57
2023-02-14T01:01:16.945Z,61.54
2023-02-14T01:03:43.792Z,61.47
2023-02-14T01:06:10.448Z,61.49
2023-02-14T01:08:37.152Z,62.05
2023-02-14T01:11:20.527Z,61.83
2023-02-14T01:13:47.940Z,61.43
2023-02-14T01:16:16.749Z,61.37
2023-02-14T01:18:43.394Z,61.39
2023-02-14T01:21:25.096Z,62.00
2023-02-14T01:23:53.383Z,60.85
2023-02-14T01:26:20.366Z,60.79
2023-02-14T01:28:47.278Z,61.72
2023-02-14T01:31:24.759Z,61.69
2023-02-14T01:33:51.693Z,61.94
2023-02-14T01:36:23.082Z,61.83
2023-02-14T01:38:57.673Z,61.88
2023-02-14T01:41:24.703Z,62.19
2023-02-14T01:44:02.930Z,61.54
2023-02-14T01:46:31.600Z,61.39
2023-02-14T01:49:14.500Z,61.34
2023-02-14T01:51:48.910Z,61.35
2023-02-14T01:54:15.536Z,61.63
2023-02-14T01:56:50.085Z,61.63
2023-02-14T01:59:18.932Z,61.53
2023-02-14T02:01:45.994Z,61.89
2023-02-14T02:04:17.702Z,62.38
2023-02-14T02:06:51.144Z,62.06
2023-02-14T02:09:33.609Z,61.45
2023-02-14T02:12:01.241Z,62.06
2023-02-14T02:14:27.955Z,62.35
2023-02-14T02:17:28.722Z,61.75
2023-02-14T02:20:17.325Z,61.74
2023-02-14T02:23:02.590Z,62.87
2023-02-14T02:25:50.979Z,62.67
2023-02-14T02:28:26.909Z,62.57
2023-02-14T02:30:56.579Z,63.84
2023-02-14T02:33:45.204Z,62.85
2023-02-14T02:36:36.617Z,63.74
2023-02-14T02:39:03.160Z,62.15
2023-02-14T02:41:48.099Z,61.67
2023-02-14T02:44:45.826Z,62.37
2023-02-14T02:47:32.214Z,64.32
2023-02-14T02:50:19.850Z,64.19
2023-02-14T02:53:07.638Z,64.70
2023-02-14T02:55:54.158Z,63.45
2023-02-14T02:58:20.817Z,63.62
2023-02-14T03:00:47.441Z,63.35
2023-02-14T03:03:14.073Z,63.93
2023-02-14T03:05:40.781Z,64.70
2023-02-14T03:08:07.404Z,64.54
2023-02-14T03:10:36.307Z,63.60
2023-02-14T03:13:24.591Z,64.07
2023-02-14T03:16:16.206Z,63.12
2023-02-14T03:18:44.588Z,63.28
2023-02-14T03:21:28.877Z,62.45
2023-02-14T03:24:17.208Z,62.93
2023-02-14T03:27:03.068Z,63.20
2023-02-14T03:29:47.907Z,63.15
2023-02-14T03:32:38.970Z,63.09
2023-02-14T03:35:20.293Z,62.69
2023-02-14T03:38:00.842Z,62.24
2023-02-14T03:40:41.981Z,62.99
2023-02-14T03:43:19.421Z,63.40
2023-02-14T03:45:52.327Z,63.72
2023-02-14T03:48:19.676Z,64.15
2023-02-14T03:50:46.632Z,63.85
2023-02-14T03:53:13.289Z,64.01
2023-02-14T03:56:22.281Z,63.88
2023-02-14T03:58:51.055Z,64.13
2023-02-14T04:01:37.050Z,64.37
2023-02-14T04:04:04.746Z,63.74
2023-02-14T04:06:31.397Z,64.40
2023-02-14T04:08:58.122Z,63.71
2023-02-14T04:11:24.871Z,64.67
2023-02-14T04:13:51.568Z,63.68
2023-02-14T04:16:18.289Z,64.13
2023-02-14T04:18:44.973Z,65.20
2023-02-14T04:21:11.603Z,64.50
2023-02-14T04:23:38.341Z,64.67
2023-02-14T04:26:05.037Z,65.50
2023-02-14T04:28:31.836Z,64.76
2023-02-14T04:31:02.189Z,65.13
2023-02-14T04:33:29.277Z,65.68
2023-02-14T04:35:55.932Z,65.10
2023-02-14T04:38:22.682Z,65.34
2023-02-14T04:40:49.860Z,65.45
2023-02-14T04:43:16.504Z,64.92
2023-02-14T04:45:43.172Z,65.32
2023-02-14T04:48:09.930Z,65.04
2023-02-14T04:50:36.603Z,65.67
2023-02-14T04:53:03.265Z,64.59
2023-02-14T04:55:29.935Z,64.04
2023-02-14T04:57:56.866Z,64.14
2023-02-14T05:00:23.526Z,64.21
2023-02-14T05:02:50.167Z,65.14
2023-02-14T05:05:16.829Z,65.25
2023-02-14T05:07:43.492Z,64.81
2023-02-14T05:10:10.530Z,64.72
2023-02-14T05:12:37.167Z,64.54
2023-02-14T05:15:03.877Z,64.91
2023-02-14T05:17:30.525Z,64.64
2023-02-14T05:19:57.166Z,64.83
2023-02-14T05:22:23.817Z,65.71
2023-02-14T05:24:50.488Z,65.59
2023-02-14T05:27:17.129Z,65.25
2023-02-14T05:29:43.774Z,64.27
2023-02-14T05:32:10.499Z,64.21
2023-02-14T05:34:37.190Z,65.14
2023-02-14T05:37:03.825Z,65.12
2023-02-14T05:39:30.507Z,64.91
2023-02-14T05:41:59.266Z,65.62
2023-02-14T05:44:26.092Z,65.14
2023-02-14T05:46:52.774Z,65.04
2023-02-14T05:49:19.438Z,64.90
2023-02-14T05:51:46.093Z,64.71
2023-02-14T05:54:12.750Z,64.37
2023-02-14T05:56:39.387Z,64.58
2023-02-14T05:59:06.038Z,65.04
2023-02-14T06:01:32.704Z,65.62
2023-02-14T06:03:59.442Z,65.24
2023-02-14T06:06:26.134Z,66.01
2023-02-14T06:08:52.758Z,64.50
2023-02-14T06:11:19.451Z,64.50
2023-02-14T06:13:46.203Z,64.43
2023-02-14T06:16:12.924Z,64.14
2023-02-14T06:18:39.583Z,64.68
2023-02-14T06:21:06.364Z,65.24
2023-02-14T06:23:33.008Z,65.02
2023-02-14T06:25:59.659Z,64.46
2023-02-14T06:28:26.296Z,64.67
2023-02-14T06:30:52.999Z,63.49
2023-02-14T06:33:19.703Z,63.58
2023-02-14T06:35:46.335Z,64.04
2023-02-14T06:38:12.990Z,63.64
2023-02-14T06:40:39.642Z,64.41
2023-02-14T06:43:06.292Z,64.49
2023-02-14T06:45:32.966Z,63.82
2023-02-14T06:47:59.619Z,63.67
2023-02-14T06:50:26.266Z,64.38
2023-02-14T06:52:52.916Z,64.34
2023-02-14T06:55:19.554Z,64.41
2023-02-14T06:57:46.211Z,63.56
2023-02-14T07:00:13.182Z,63.64
2023-02-14T07:02:39.879Z,64.08
2023-02-14T07:05:06.768Z,63.31
2023-02-14T07:07:33.420Z,63.64
2023-02-14T07:10:03.762Z,63.99
2023-02-14T07:12:30.418Z,63.56
2023-02-14T07:14:57.099Z,63.35
2023-02-14T07:17:23.766Z,63.86
2023-02-14T07:19:50.388Z,63.15
2023-02-14T07:22:17.073Z,63.27
2023-02-14T07:24:43.736Z,62.44
2023-02-14T07:27:10.393Z,62.94
2023-02-14T07:29:37.050Z,63.14
2023-02-14T07:32:03.841Z,63.05
2023-02-14T07:34:30.582Z,63.16
2023-02-14T07:36:57.218Z,63.82
2023-02-14T07:39:23.846Z,63.66
2023-02-14T07:41:50.500Z,63.18
2023-02-14T07:44:17.158Z,63.68
2023-02-14T07:46:43.806Z,62.89
2023-02-14T07:49:10.464Z,62.94
2023-02-14T07:51:37.181Z,62.75
2023-02-14T07:54:03.855Z,62.49
2023-02-14T07:56:30.518Z,62.24
2023-02-14T07:58:57.242Z,62.10
2023-02-14T08:01:23.946Z,60.72
2023-02-14T08:03:50.596Z,60.52
2023-02-14T08:06:17.783Z,60.33
2023-02-14T08:08:44.518Z,59.63
2023-02-14T08:11:11.170Z,59.18
2023-02-14T08:13:37.847Z,58.96
2023-02-14T08:16:04.576Z,59.16
2023-02-14T08:18:40.773Z,58.75
2023-02-14T08:21:08.506Z,58.69
2023-02-14T08:23:35.150Z,59.11
2023-02-14T08:26:01.779Z,58.55
2023-02-14T08:28:28.427Z,59.23
2023-02-14T08:30:55.178Z,59.58
2023-02-14T08:33:21.861Z,59.10
2023-02-14T08:35:48.553Z,59.31
2023-02-14T08:38:15.180Z,58.04
2023-02-14T08:40:41.850Z,54.47
2023-02-14T08:43:08.502Z,48.90
2023-02-14T08:45:35.249Z,43.43
2023-02-14T08:48:05.904Z,41.25
2023-02-14T08:50:32.799Z,39.53
2023-02-14T08:52:59.489Z,36.66
2023-02-14T08:55:26.147Z,35.30
2023-02-14T08:57:54.533Z,35.04
2023-02-14T09:00:21.558Z,35.15
2023-02-14T09:02:51.053Z,33.88
2023-02-14T09:05:17.844Z,32.03
2023-02-14T09:07:44.628Z,30.34
2023-02-14T09:10:11.283Z,29.15
2023-02-14T09:12:41.636Z,28.92
2023-02-14T09:15:09.239Z,27.64
2023-02-14T09:17:36.580Z,27.16
2023-02-14T09:20:04.134Z,27.46
2023-02-14T09:22:30.810Z,26.43
2023-02-14T09:24:57.470Z,26.21
2023-02-14T09:27:24.134Z,26.25
2023-02-14T09:29:50.780Z,25.79
2023-02-14T09:32:17.595Z,25.89
2023-02-14T09:34:44.301Z,26.32
2023-02-14T09:37:11.459Z,26.05
2023-02-14T09:39:38.359Z,25.49
2023-02-14T09:42:42.945Z,26.74
2023-02-14T09:45:26.020Z,26.86
2023-02-14T09:47:54.399Z,29.12
2023-02-14T09:50:27.882Z,29.32
2023-02-14T09:52:59.154Z,30.73
2023-02-14T09:55:27.725Z,32.39
2023-02-14T09:58:03.403Z,32.66
2023-02-14T10:00:33.620Z,34.18
2023-02-14T10:03:16.840Z,37.01
2023-02-14T10:05:48.338Z,37.85
2023-02-14T10:08:41.597Z,39.01
2023-02-14T10:11:13.407Z,39.28
2023-02-14T10:13:46.354Z,40.63
2023-02-14T10:16:31.678Z,41.46
2023-02-14T10:19:03.936Z,41.97
2023-02-14T10:21:39.317Z,42.96
2023-02-14T10:24:21.032Z,44.16
2023-02-14T10:26:48.447Z,43.57
2023-02-14T10:29:16.549Z,44.60
2023-02-14T10:31:49.057Z,44.64
2023-02-14T10:34:36.846Z,45.10
2023-02-14T10:37:15.459Z,45.57
2023-02-14T10:39:57.592Z,45.44
2023-02-14T10:42:48.917Z,45.69
2023-02-14T10:45:24.540Z,46.51
2023-02-14T10:48:24.155Z,47.78
2023-02-14T10:50:56.369Z,47.64
2023-02-14T10:53:44.280Z,48.96
2023-02-14T10:56:26.465Z,48.46
2023-02-14T10:58:53.164Z,49.04
2023-02-14T11:01:19.910Z,48.89
2023-02-14T11:03:55.263Z,49.30
2023-02-14T11:06:21.973Z,48.48
2023-02-14T11:08:48.619Z,48.09
2023-02-14T11:11:17.833Z,48.17
2023-02-14T11:13:44.509Z,48.65
2023-02-14T11:16:12.709Z,49.25
2023-02-14T11:18:40.096Z,49.94
2023-02-14T11:21:14.797Z,49.50
2023-02-14T11:23:43.253Z,49.60
2023-02-14T11:26:25.657Z,49.34
2023-02-14T11:28:54.315Z,49.51
2023-02-14T11:31:28.999Z,49.84
2023-02-14T11:33:55.749Z,49.47
2023-02-14T11:36:22.406Z,50.52
2023-02-14T11:39:10.864Z,51.31
2023-02-14T11:41:48.038Z,51.22
2023-02-14T11:44:20.079Z,50.83
2023-02-14T11:46:53.160Z,50.94
2023-02-14T11:49:27.555Z,52.90
2023-02-14T11:51:54.306Z,51.78
2023-02-14T11:54:33.623Z,52.14
2023-02-14T11:57:21.637Z,52.62
2023-02-14T11:59:49.557Z,52.51
2023-02-14T12:02:25.745Z,52.32
2023-02-14T12:04:54.178Z,53.33
2023-02-14T12:07:32.309Z,52.44
2023-02-14T12:10:15.557Z,52.92
2023-02-14T12:12:48.878Z,54.33
2023-02-14T12:15:28.413Z,54.85
2023-02-14T12:18:20.935Z,55.26
2023-02-14T12:21:09.134Z,53.88
2023-02-14T12:23:41.571Z,53.42
2023-02-14T12:26:17.235Z,54.32
2023-02-14T12:28:47.662Z,54.20
2023-02-14T12:31:14.361Z,53.54
2023-02-14T12:33:41.044Z,53.16
2023-02-14T12:36:17.862Z,53.66
2023-02-14T12:39:05.528Z,54.15
2023-02-14T12:41:55.399Z,54.07
2023-02-14T12:44:42.121Z,53.75
2023-02-14T12:47:41.233Z,54.33
2023-02-14T12:50:28.012Z,53.92
2023-02-14T12:53:19.286Z,53.69
2023-02-14T12:56:13.983Z,54.35
2023-02-14T12:58:43.250Z,53.96
2023-02-14T13:01:38.373Z,53.41
2023-02-14T13:04:24.220Z,52.92
2023-02-14T13:06:57.462Z,52.94
2023-02-14T13:09:59.345Z,53.84
2023-02-14T13:12:26.027Z,52.61
2023-02-14T13:15:04.885Z,53.73
2023-02-14T13:17:42.657Z,53.13
2023-02-14T13:20:36.672Z,53.38
2023-02-14T13:23:05.656Z,52.19
2023-02-14T13:25:45.377Z,51.67
2023-02-14T13:28:13.070Z,52.07
2023-02-14T13:30:40.197Z,52.12
2023-02-14T13:33:29.279Z,50.44
2023-02-14T13:35:58.489Z,49.90
2023-02-14T13:38:25.589Z,49.13
2023-02-14T13:40:53.021Z,50.36
2023-02-14T13:44:00.642Z,50.23
2023-02-14T13:46:32.676Z,49.50
2023-02-14T13:49:41.377Z,48.69
2023-02-14T13:52:09.389Z,49.74
2023-02-14T13:54:45.965Z,49.07
2023-02-14T13:57:34.297Z,49.32
2023-02-14T14:00:16.330Z,48.75
2023-02-14T14:03:15.893Z,48.10
2023-02-14T14:05:42.426Z,49.11
2023-02-14T14:08:20.975Z,48.71
2023-02-14T14:10:52.064Z,49.20
2023-02-14T14:13:40.627Z,49.68
2023-02-14T14:16:25.416Z,48.60
2023-02-14T14:19:21.159Z,48.23
2023-02-14T14:22:10.556Z,48.25
2023-02-14T14:24:40.978Z,49.59
2023-02-14T14:27:30.614Z,48.81
2023-02-14T14:29:58.537Z,49.50
2023-02-14T14:32:27.664Z,48.85
2023-02-14T14:34:56.397Z,48.78
2023-02-14T14:37:35.676Z,48.08
2023-02-14T14:40:04.913Z,47.41
2023-02-14T14:42:39.234Z,47.97
2023-02-14T14:45:24.291Z,48.08
2023-02-14T14:47:54.081Z,47.27
2023-02-14T14:50:28.546Z,46.22
2023-02-14T14:53:18.644Z,46.99
2023-02-14T14:55:45.912Z,46.98
2023-02-14T14:58:36.882Z,48.02
2023-02-14T15:01:04.287Z,48.44
2023-02-14T15:03:30.987Z,48.19
2023-02-14T15:06:08.736Z,48.55
2023-02-14T15:08:35.562Z,48.38
2023-02-14T15:11:13.279Z,48.94
2023-02-14T15:13:45.743Z,49.18
2023-02-14T15:16:54.179Z,49.22
2023-02-14T15:19:28.748Z,48.46
2023-02-14T15:21:55.421Z,48.01
2023-02-14T15:24:22.096Z,48.54
2023-02-14T15:26:48.758Z,48.82
2023-02-14T15:29:21.389Z,48.54
2023-02-14T15:31:48.173Z,48.57
2023-02-14T15:34:14.861Z,49.15
2023-02-14T15:36:41.510Z,48.34
2023-02-14T15:39:08.310Z,47.63
2023-02-14T15:41:35.283Z,47.63
2023-02-14T15:44:01.964Z,47.16
2023-02-14T15:46:35.786Z,47.63
2023-02-14T15:49:08.056Z,48.43
2023-02-14T15:51:34.715Z,48.65
2023-02-14T15:54:06.180Z,48.27
2023-02-14T15:56:45.475Z,47.94
2023-02-14T15:59:16.490Z,47.91
2023-02-14T16:01:53.929Z,49.66
2023-02-14T16:04:28.564Z,48.45
2023-02-14T16:07:21.889Z,47.51
2023-02-14T16:09:49.042Z,48.79
2023-02-14T16:12:32.240Z,49.62
2023-02-14T16:15:18.589Z,49.26
2023-02-14T16:17:45.259Z,48.52
2023-02-14T16:20:36.046Z,49.28
2023-02-14T16:23:17.851Z,48.04
2023-02-14T16:25:44.864Z,48.34
2023-02-14T16:28:11.517Z,48.90
2023-02-14T16:30:38.513Z,49.36
2023-02-14T16:33:06.725Z,48.99
2023-02-14T16:35:33.387Z,50.87
2023-02-14T16:38:00.048Z,51.06
2023-02-14T16:40:26.855Z,50.94
2023-02-14T16:42:53.508Z,51.13
2023-02-14T16:45:20.181Z,51.37
2023-02-14T16:47:47.105Z,51.73
2023-02-14T16:50:13.746Z,52.82
2023-02-14T16:52:40.411Z,52.77
2023-02-14T16:55:10.776Z,52.46
2023-02-14T16:57:39.793Z,52.00
2023-02-14T17:00:06.961Z,52.12
2023-02-14T17:02:34.303Z,53.81
2023-02-14T17:05:00.970Z,53.63
2023-02-14T17:07:28.740Z,53.29
2023-02-14T17:09:57.901Z,53.57
2023-02-14T17:12:27.184Z,54.81
2023-02-14T17:14:54.374Z,54.76
2023-02-14T17:17:21.037Z,55.02
2023-02-14T17:19:47.699Z,55.71
2023-02-14T17:22:14.352Z,55.36
2023-02-14T17:24:44.937Z,55.16
2023-02-14T17:27:11.590Z,55.85
2023-02-14T17:29:38.259Z,55.50
2023-02-14T17:32:05.141Z,56.06
2023-02-14T17:34:32.691Z,56.13
2023-02-14T17:36:59.447Z,55.62
2023-02-14T17:39:26.120Z,56.06
2023-02-14T17:41:52.770Z,56.17
2023-02-14T17:44:19.420Z,55.89
2023-02-14T17:46:46.126Z,55.44
2023-02-14T17:49:12.831Z,55.91
2023-02-14T17:51:39.487Z,55.68
2023-02-14T17:54:06.150Z,54.90
2023-02-14T17:56:32.827Z,55.41
2023-02-14T17:58:59.899Z,55.01
2023-02-14T18:01:28.063Z,55.20
2023-02-14T18:03:54.769Z,55.38
2023-02-14T18:06:21.995Z,54.90
2023-02-14T18:08:49.431Z,55.63
2023-02-14T18:11:16.596Z,55.90
2023-02-14T18:13:43.320Z,56.67
2023-02-14T18:16:11.381Z,56.85
2023-02-14T18:18:38.194Z,57.17
2023-02-14T18:21:06.267Z,56.54
2023-02-14T18:23:33.107Z,57.04
2023-02-14T18:26:01.286Z,57.27
2023-02-14T18:28:27.939Z,57.47
2023-02-14T18:30:54.620Z,57.98
2023-02-14T18:33:21.433Z,57.75
2023-02-14T18:35:48.080Z,58.13
2023-02-14T18:38:15.168Z,58.86
2023-02-14T18:40:41.837Z,59.43
2023-02-14T18:43:08.517Z,59.41
2023-02-14T18:45:36.228Z,59.45
2023-02-14T18:48:03.007Z,59.19
2023-02-14T18:50:29.663Z,59.05
2023-02-14T18:52:56.305Z,59.04
2023-02-14T18:55:22.940Z,59.23
2023-02-14T18:57:49.624Z,59.09
2023-02-14T19:00:16.327Z,58.27
2023-02-14T19:02:42.961Z,57.43
2023-02-14T19:05:09.689Z,57.69
2023-02-14T19:07:36.323Z,57.29
2023-02-14T19:10:04.930Z,56.64
2023-02-14T19:12:32.298Z,56.30
2023-02-14T19:14:59.398Z,56.67
2023-02-14T19:17:26.058Z,56.38
2023-02-14T19:19:53.138Z,56.65
2023-02-14T19:22:19.986Z,56.66
2023-02-14T19:24:46.639Z,56.60
2023-02-14T19:27:13.298Z,56.53
2023-02-14T19:29:39.935Z,56.37
2023-02-14T19:32:06.587Z,56.04
2023-02-14T19:34:33.266Z,55.83
2023-02-14T19:37:00.438Z,55.22
2023-02-14T19:39:28.361Z,56.16
2023-02-14T19:41:55.097Z,56.31
2023-02-14T19:44:23.143Z,55.78
2023-02-14T19:46:51.838Z,55.50
2023-02-14T19:49:19.428Z,54.98
2023-02-14T19:51:47.019Z,55.09
2023-02-14T19:54:13.753Z,55.01
2023-02-14T19:56:42.065Z,55.29
2023-02-14T19:59:08.762Z,54.71
2023-02-14T20:01:42.029Z,54.40
2023-02-14T20:04:10.001Z,54.65
2023-02-14T20:06:37.162Z,54.57
2023-02-14T20:09:04.629Z,54.28
2023-02-14T20:11:47.135Z,54.64
2023-02-14T20:14:13.805Z,54.41
2023-02-14T20:16:40.509Z,54.38
2023-02-14T20:19:08.652Z,54.12
2023-02-14T20:21:35.287Z,54.11
2023-02-14T20:24:02.218Z,54.07
2023-02-14T20:26:32.924Z,54.18
2023-02-14T20:29:00.372Z,54.10
2023-02-14T20:31:27.061Z,54.64
2023-02-14T20:33:53.745Z,54.71
2023-02-14T20:36:20.390Z,55.34
2023-02-14T20:38:47.077Z,55.10
2023-02-14T20:41:14.174Z,55.01
2023-02-14T20:43:40.829Z,55.48
2023-02-14T20:46:07.528Z,56.39
2023-02-14T20:48:34.333Z,55.79
2023-02-14T20:51:18.150Z,55.79
2023-02-14T20:53:44.917Z,56.23
2023-02-14T20:56:11.608Z,56.24
2023-02-14T20:58:38.303Z,56.45
2023-02-14T21:01:09.062Z,56.81
2023-02-14T21:03:35.970Z,56.78
2023-02-14T21:06:06.447Z,56.97
2023-02-14T21:08:33.172Z,57.12
2023-02-14T21:11:00.241Z,57.38
2023-02-14T21:13:27.152Z,56.98
2023-02-14T21:15:53.883Z,57.27
2023-02-14T21:18:20.609Z,57.11
2023-02-14T21:20:47.276Z,57.16
2023-02-14T21:23:13.929Z,57.06
2023-02-14T21:25:40.585Z,57.17
2023-02-14T21:28:07.210Z,57.42
2023-02-14T21:30:33.954Z,57.72
2023-02-14T21:33:00.604Z,57.13
2023-02-14T21:35:27.241Z,56.90
2023-02-14T21:37:53.888Z,57.00
2023-02-14T21:40:20.514Z,56.72
2023-02-14T21:42:47.164Z,56.48
2023-02-14T21:45:13.838Z,56.87
2023-02-14T21:47:40.472Z,57.06
2023-02-14T21:50:07.419Z,57.22
2023-02-14T21:52:34.037Z,57.75
2023-02-14T21:55:00.718Z,57.47
2023-02-14T21:57:27.410Z,58.05
2023-02-14T21:59:54.035Z,57.49
2023-02-14T22:02:20.733Z,57.67
2023-02-14T22:04:47.582Z,58.36
2023-02-14T22:07:14.247Z,57.99
2023-02-14T22:09:40.885Z,58.31
2023-02-14T22:12:07.556Z,58.40
2023-02-14T22:14:34.208Z,58.31
2023-02-14T22:17:00.862Z,58.83
2023-02-14T22:19:27.538Z,59.25
2023-02-14T22:21:54.173Z,58.73
2023-02-14T22:24:20.822Z,59.46
2023-02-14T22:26:47.481Z,59.12
2023-02-14T22:29:14.105Z,60.20
2023-02-14T22:31:42.362Z,59.17
2023-02-14T22:34:10.331Z,58.96
2023-02-14T22:36:36.963Z,58.98
2023-02-14T22:39:04.106Z,58.58
2023-02-14T22:41:30.757Z,58.32
2023-02-14T22:43:57.403Z,57.96
2023-02-14T22:46:25.676Z,57.84
2023-02-14T22:48:52.466Z,57.87
2023-02-14T22:51:22.682Z,57.09
2023-02-14T22:53:50.107Z,57.11
2023-02-14T22:56:18.651Z,58.14
2023-02-14T22:58:45.358Z,59.08
2023-02-14T23:01:15.704Z,59.11
2023-02-14T23:03:42.745Z,59.56
2023-02-14T23:06:09.826Z,59.07
2023-02-14T23:08:43.171Z,59.48
2023-02-14T23:11:11.294Z,58.77
2023-02-14T23:13:37.935Z,58.36
2023-02-14T23:16:04.593Z,58.19
2023-02-14T23:18:31.257Z,57.33
2023-02-14T23:20:57.912Z,57.82
2023-02-14T23:23:24.557Z,58.75
2023-02-14T23:25:51.174Z,58.71
2023-02-14T23:28:17.981Z,57.83
2023-02-14T23:30:44.624Z,59.16
2023-02-14T23:33:11.266Z,59.37
2023-02-14T23:35:37.912Z,59.58
2023-02-14T23:38:04.560Z,60.28
2023-02-14T23:40:31.215Z,60.57
2023-02-14T23:42:57.857Z,60.64
2023-02-14T23:45:24.639Z,60.03
2023-02-14T23:47:51.310Z,60.34
2023-02-14T23:50:18.042Z,60.37
2023-02-14T23:52:44.842Z,60.75
2023-02-14T23:55:11.772Z,60.15
2023-02-14T23:57:38.386Z,60.13
